TimePDT,TemperatureF,Dew PointF,Humidity,Sea Level PressureIn,VisibilityMPH,Wind Direction,Wind SpeedMPH,Gust SpeedMPH,PrecipitationIn,Events,Conditions,WindDirDegrees,DateUTC
12:56 AM,68.0,46.9,47,29.73,10.0,North,15.0,21.9,N/A,,Clear,360,2013-07-05 07:56:00
1:56 AM,66.0,48.0,52,29.73,10.0,NNE,11.5,18.4,N/A,,Clear,20,2013-07-05 08:56:00
2:56 AM,64.0,48.0,56,29.72,10.0,North,10.4,-,N/A,,Clear,10,2013-07-05 09:56:00
3:56 AM,61.0,48.9,64,29.71,10.0,NNE,11.5,-,N/A,,Clear,20,2013-07-05 10:56:00
4:56 AM,60.1,48.9,67,29.72,10.0,NNE,8.1,-,N/A,,Clear,20,2013-07-05 11:56:00
5:56 AM,57.9,48.9,72,29.72,10.0,NNE,6.9,-,N/A,,Clear,20,2013-07-05 12:56:00
6:56 AM,60.1,48.9,67,29.73,10.0,NNE,5.8,-,N/A,,Clear,20,2013-07-05 13:56:00
7:56 AM,63.0,50.0,63,29.74,10.0,NNE,5.8,-,N/A,,Clear,30,2013-07-05 14:56:00
8:56 AM,66.0,51.1,59,29.74,10.0,NNW,4.6,-,N/A,,Clear,340,2013-07-05 15:56:00
9:56 AM,73.0,51.1,46,29.72,10.0,Variable,4.6,-,N/A,,Clear,0,2013-07-05 16:56:00
10:56 AM,77.0,52.0,42,29.71,10.0,Calm,Calm,-,N/A,,Clear,0,2013-07-05 17:56:00
11:56 AM,82.0,54.0,38,29.70,10.0,East,6.9,-,N/A,,Clear,80,2013-07-05 18:56:00
12:56 PM,86.0,53.1,32,29.70,10.0,Variable,5.8,-,N/A,,Clear,0,2013-07-05 19:56:00
1:56 PM,90.0,54.0,29,29.68,10.0,NNE,5.8,-,N/A,,Clear,20,2013-07-05 20:56:00
2:56 PM,90.0,55.0,30,29.67,10.0,Variable,5.8,-,N/A,,Clear,0,2013-07-05 21:56:00
3:56 PM,91.0,54.0,28,29.65,10.0,North,10.4,-,N/A,,Clear,10,2013-07-05 22:56:00
4:56 PM,91.0,52.0,26,29.65,10.0,NNW,4.6,-,N/A,,Clear,330,2013-07-05 23:56:00
5:56 PM,89.1,53.1,29,29.65,10.0,North,8.1,-,N/A,,Clear,360,2013-07-06 00:56:00
6:56 PM,84.9,53.1,33,29.65,10.0,NNE,8.1,-,N/A,,Clear,20,2013-07-06 01:56:00
7:56 PM,82.0,51.1,34,29.66,10.0,North,4.6,-,N/A,,Clear,10,2013-07-06 02:56:00
8:56 PM,75.9,52.0,43,29.68,10.0,Calm,Calm,-,N/A,,Clear,0,2013-07-06 03:56:00
9:56 PM,71.1,51.1,49,29.70,10.0,Calm,Calm,-,N/A,,Clear,0,2013-07-06 04:56:00
10:56 PM,69.1,51.1,53,29.71,10.0,Calm,Calm,-,N/A,,Clear,0,2013-07-06 05:56:00
11:56 PM,66.9,52.0,59,29.71,10.0,Calm,Calm,-,N/A,,Clear,0,2013-07-06 06:56:00